Time;durP1;ratioP1;P1;durP2;ratioP2;P2;SDS_P1;SDS_P2;PMS_P1;PMS_P2;Temp;Humidity;BMP_temperature;BMP_pressure;BME280_temperature;BME280_humidity;BME280_pressure;Samples;Min_cycle;Max_cycle;Signal;HPM_P1;HPM_P2
2021/04/05 00:02:14;;;;;;;35.17;19.87;;;6.20;75.90;;;;;;5050942;28;20025;-75
2021/04/05 00:04:39;;;;;;;32.83;20.37;;;6.20;76.00;;;;;;5050566;28;20445;-75
2021/04/05 00:07:05;;;;;;;32.17;20.07;;;6.20;76.10;;;;;;5049658;28;20037;-74
2021/04/05 00:09:31;;;;;;;30.67;19.00;;;6.30;76.30;;;;;;5051703;28;20029;-73
2021/04/05 00:11:59;;;;;;;37.30;19.00;;;6.30;76.20;;;;;;5051543;28;20378;-74
2021/04/05 00:14:25;;;;;;;30.70;18.27;;;6.30;76.20;;;;;;5049430;28;20036;-73
2021/04/05 00:16:50;;;;;;;36.27;19.47;;;6.30;76.30;;;;;;5050314;28;20036;-75
2021/04/05 00:19:16;;;;;;;29.33;18.87;;;6.30;76.10;;;;;;5050361;28;20029;-74
2021/04/05 00:21:42;;;;;;;30.00;18.40;;;6.30;76.30;;;;;;5061143;28;20119;-74
2021/04/05 00:24:08;;;;;;;31.90;18.90;;;6.30;76.30;;;;;;5069151;28;20103;-77
2021/04/05 00:26:34;;;;;;;25.63;17.43;;;6.40;76.70;;;;;;5063048;28;20397;-74
2021/04/05 00:29:00;;;;;;;26.87;17.87;;;6.30;76.00;;;;;;5043708;28;20055;-74
2021/04/05 00:31:25;;;;;;;32.53;18.63;;;6.40;76.20;;;;;;5048509;28;20088;-74
2021/04/05 00:33:51;;;;;;;30.77;17.90;;;6.50;76.30;;;;;;5050700;28;20470;-73
2021/04/05 00:36:16;;;;;;;30.83;19.73;;;6.40;76.00;;;;;;5049182;28;20461;-74
2021/04/05 00:38:42;;;;;;;32.07;18.93;;;6.40;76.20;;;;;;5042022;28;20037;-74
2021/04/05 00:41:13;;;;;;;35.73;19.30;;;6.40;76.40;;;;;;5030043;28;20444;-76
2021/04/05 00:43:40;;;;;;;34.03;20.03;;;6.50;76.40;;;;;;5030799;28;20076;-74
2021/04/05 00:46:07;;;;;;;35.23;20.33;;;6.50;76.20;;;;;;5032254;28;20049;-78
2021/04/05 00:48:34;;;;;;;31.87;19.90;;;6.50;76.30;;;;;;5050250;28;20057;-73
2021/04/05 00:51:09;;;;;;;37.10;20.87;;;6.60;76.20;;;;;;5049330;28;20032;-73
2021/04/05 00:53:41;;;;;;;34.53;20.37;;;6.50;76.00;;;;;;5049264;28;20516;-74
2021/04/05 00:56:07;;;;;;;37.00;21.27;;;6.50;76.30;;;;;;5048539;28;20028;-78
2021/04/05 00:58:34;;;;;;;37.70;22.47;;;6.50;76.10;;;;;;5029556;28;20060;-74
2021/04/05 01:01:04;;;;;;;38.13;22.03;;;6.60;76.20;;;;;;5030077;28;20033;-75
2021/04/05 01:03:32;;;;;;;36.70;22.20;;;6.60;76.00;;;;;;5028237;28;20022;-73
2021/04/05 01:06:05;;;;;;;32.67;21.93;;;6.50;76.00;;;;;;5029460;28;20037;-74
2021/04/05 01:08:31;;;;;;;;;;;6.50;76.10;;;;;;5050038;28;20021;-74
2021/04/05 01:10:57;;;;;;;37.40;21.73;;;6.50;76.30;;;;;;5048886;28;19908;-73
2021/04/05 01:13:22;;;;;;;37.63;22.07;;;6.50;76.10;;;;;;5049403;28;20385;-73
2021/04/05 01:15:48;;;;;;;38.40;22.00;;;6.50;76.40;;;;;;5050368;28;20106;-73
2021/04/05 01:18:15;;;;;;;40.40;23.17;;;6.50;76.20;;;;;;5068587;28;20063;-73
2021/04/05 01:20:41;;;;;;;39.97;21.10;;;6.50;76.10;;;;;;5068933;28;20029;-72
2021/04/05 01:23:07;;;;;;;35.93;21.07;;;6.50;76.00;;;;;;5070303;28;20430;-73
2021/04/05 01:25:33;;;;;;;33.70;20.47;;;6.50;76.00;;;;;;5051527;28;20083;-74
2021/04/05 01:27:59;;;;;;;39.07;20.70;;;6.50;75.90;;;;;;5054096;28;20542;-73
2021/04/05 01:30:32;;;;;;;41.50;20.50;;;6.50;76.40;;;;;;5053842;28;20086;-74
2021/04/05 01:33:19;;;;;;;36.15;19.73;;;6.50;76.10;;;;;;5052927;28;20079;-75
2021/04/05 01:35:52;;;;;;;33.77;19.87;;;6.50;76.10;;;;;;5053227;28;20092;-74
2021/04/05 01:38:21;;;;;;;33.30;19.27;;;6.50;76.30;;;;;;5035152;28;20389;-73
2021/04/05 01:40:55;;;;;;;32.53;19.17;;;6.60;76.30;;;;;;5045955;28;20029;-73
2021/04/05 01:43:21;;;;;;;29.23;18.90;;;6.50;76.30;;;;;;5046708;28;20033;-73
2021/04/05 01:45:47;;;;;;;31.13;17.83;;;6.50;76.30;;;;;;5040900;28;20044;-75
2021/04/05 01:48:14;;;;;;;34.97;18.17;;;6.50;76.30;;;;;;5042596;28;20053;-74
2021/04/05 01:50:43;;;;;;;34.17;18.07;;;6.50;76.40;;;;;;5039524;28;20021;-73
2021/04/05 01:53:09;;;;;;;35.43;18.73;;;6.50;76.40;;;;;;5047775;28;20037;-73
2021/04/05 01:55:37;;;;;;;32.43;18.40;;;6.50;76.50;;;;;;5053258;28;20090;-74
2021/04/05 01:58:05;;;;;;;35.77;19.17;;;6.50;76.40;;;;;;5053935;28;20112;-73
2021/04/05 02:00:37;;;;;;;27.67;17.53;;;6.50;76.60;;;;;;5055679;28;20051;-75
2021/04/05 02:03:08;;;;;;;40.92;19.30;;;6.60;76.60;;;;;;5052884;28;20029;-74
2021/04/05 02:05:37;;;;;;;32.97;17.57;;;6.60;76.60;;;;;;5054134;28;20052;-74
2021/04/05 02:08:05;;;;;;;34.97;18.30;;;6.60;76.60;;;;;;5055618;28;20044;-75
2021/04/05 02:10:31;;;;;;;37.73;17.37;;;6.50;76.50;;;;;;5052202;28;20036;-74
2021/04/05 02:12:57;;;;;;;31.90;18.20;;;6.50;76.60;;;;;;5052719;28;20044;-74
2021/04/05 02:15:24;;;;;;;34.47;18.03;;;6.50;76.50;;;;;;5053002;28;20476;-73
2021/04/05 02:17:52;;;;;;;29.80;17.67;;;6.50;76.60;;;;;;5053319;28;20461;-74
2021/04/05 02:20:18;;;;;;;32.80;18.87;;;6.50;76.90;;;;;;5053175;28;20029;-78
2021/04/05 02:22:46;;;;;;;30.00;17.90;;;6.50;76.90;;;;;;5051798;28;20061;-74
2021/04/05 02:25:18;;;;;;;34.33;17.40;;;6.50;76.70;;;;;;5052808;28;20025;-75
2021/04/05 02:27:46;;;;;;;30.27;17.83;;;6.50;76.90;;;;;;5052477;28;20029;-75
2021/04/05 02:30:23;;;;;;;32.60;17.40;;;6.50;76.80;;;;;;5052364;28;20039;-75
2021/04/05 02:32:58;;;;;;;34.67;17.77;;;6.40;76.80;;;;;;5051709;28;20037;-75
2021/04/05 02:35:25;;;;;;;33.07;18.53;;;6.50;76.80;;;;;;5044356;28;20030;-74
2021/04/05 02:37:52;;;;;;;31.77;16.97;;;6.50;76.80;;;;;;5032797;28;20029;-74
2021/04/05 02:40:19;;;;;;;33.23;18.23;;;6.40;76.80;;;;;;5033290;28;20053;-74
2021/04/05 02:42:47;;;;;;;32.93;18.00;;;6.40;76.90;;;;;;5038098;28;20030;-74
2021/04/05 02:45:17;;;;;;;33.00;17.83;;;6.40;76.90;;;;;;5041752;28;20032;-73
2021/04/05 02:47:43;;;;;;;31.40;17.37;;;6.40;77.10;;;;;;5043959;28;20046;-74
2021/04/05 02:50:09;;;;;;;30.90;16.23;;;6.40;77.00;;;;;;5053080;28;20076;-73
2021/04/05 02:52:37;;;;;;;35.43;17.37;;;6.40;77.20;;;;;;5050506;28;20029;-73
2021/04/05 02:55:10;;;;;;;31.53;17.83;;;6.30;77.20;;;;;;5053135;28;20033;-74
2021/04/05 02:57:38;;;;;;;41.47;17.80;;;6.30;77.40;;;;;;5050906;28;20112;-73
2021/04/05 03:00:13;;;;;;;30.97;16.83;;;6.30;77.50;;;;;;5052461;28;20029;-74
2021/04/05 03:02:40;;;;;;;31.40;16.17;;;6.20;77.60;;;;;;5051524;28;20037;-74
2021/04/05 03:05:07;;;;;;;31.37;15.90;;;6.20;77.70;;;;;;5052356;28;20021;-74
2021/04/05 03:07:33;;;;;;;27.13;16.30;;;6.20;77.80;;;;;;5050853;28;20036;-74
2021/04/05 03:10:00;;;;;;;29.20;15.33;;;6.30;77.70;;;;;;5052873;28;20119;-74
2021/04/05 03:12:28;;;;;;;32.33;17.07;;;6.30;77.60;;;;;;5050483;28;20060;-75
2021/04/05 03:14:55;;;;;;;28.00;15.53;;;6.40;77.60;;;;;;5050335;28;20033;-74
2021/04/05 03:17:21;;;;;;;28.10;15.67;;;6.50;77.60;;;;;;5049279;28;20128;-74
2021/04/05 03:19:48;;;;;;;27.73;15.97;;;6.60;77.40;;;;;;5050948;28;20590;-76
2021/04/05 03:22:14;;;;;;;27.40;15.30;;;6.70;77.70;;;;;;5050753;28;20040;-74
2021/04/05 03:24:40;;;;;;;30.47;16.20;;;6.70;77.20;;;;;;5033673;28;20041;-74
2021/04/05 03:27:06;;;;;;;32.80;17.17;;;6.70;77.00;;;;;;5051329;28;20102;-73
2021/04/05 03:29:34;;;;;;;30.47;16.07;;;6.70;77.00;;;;;;5031580;28;20025;-73
2021/04/05 03:32:01;;;;;;;30.67;16.47;;;6.70;77.10;;;;;;5030967;28;20464;-72
2021/04/05 03:34:31;;;;;;;28.40;15.60;;;6.70;77.20;;;;;;5032767;28;20426;-78
2021/04/05 03:37:16;;;;;;;29.93;15.60;;;6.80;77.20;;;;;;5050406;28;20362;-74
2021/04/05 03:39:42;;;;;;;34.07;15.43;;;6.80;77.10;;;;;;5031263;28;20029;-75
2021/04/05 03:42:14;;;;;;;28.70;15.57;;;6.90;77.20;;;;;;5033066;28;20527;-73
2021/04/05 03:44:55;;;;;;;32.53;15.65;;;6.80;77.20;;;;;;5049625;28;20064;-73
2021/04/05 03:47:20;;;;;;;32.50;15.33;;;6.80;77.30;;;;;;5050731;28;20025;-73
2021/04/05 03:49:54;;;;;;;31.80;16.20;;;6.90;77.40;;;;;;5049529;28;20492;-72
2021/04/05 03:52:25;;;;;;;37.97;15.77;;;6.90;77.50;;;;;;5050820;28;20108;-73
2021/04/05 03:55:08;;;;;;;36.80;16.73;;;6.90;77.40;;;;;;5051004;28;20028;-73
2021/04/05 03:57:46;;;;;;;29.48;16.60;;;6.90;77.40;;;;;;5050174;28;20033;-77
2021/04/05 04:00:15;;;;;;;31.90;15.47;;;6.90;77.60;;;;;;5051564;28;20079;-73
2021/04/05 04:02:50;;;;;;;30.67;15.07;;;6.90;77.70;;;;;;5050783;28;20134;-73
2021/04/05 04:05:27;;;;;;;28.60;14.77;;;6.90;77.70;;;;;;5051387;28;20090;-72
2021/04/05 04:08:10;;;;;;;34.87;16.47;;;6.90;77.80;;;;;;5049803;28;20040;-73
2021/04/05 04:10:38;;;;;;;32.20;16.83;;;6.80;78.10;;;;;;5048705;28;20045;-74
2021/04/05 04:13:07;;;;;;;32.93;16.27;;;6.90;78.70;;;;;;5050888;28;20111;-73
2021/04/05 04:15:35;;;;;;;36.50;16.77;;;6.90;78.40;;;;;;5050119;28;20025;-76
2021/04/05 04:18:02;;;;;;;32.33;16.47;;;6.90;78.50;;;;;;5049955;28;20033;-74
2021/04/05 04:20:29;;;;;;;36.90;17.90;;;6.90;78.60;;;;;;5049989;28;20116;-73
2021/04/05 04:22:56;;;;;;;36.43;19.00;;;6.90;78.70;;;;;;5048933;28;20050;-73
2021/04/05 04:25:23;;;;;;;33.93;18.73;;;6.90;78.80;;;;;;5050612;28;20072;-73
2021/04/05 04:27:49;;;;;;;43.47;20.10;;;6.90;78.80;;;;;;5052253;28;20473;-74
2021/04/05 04:30:32;;;;;;;34.73;19.80;;;6.90;78.90;;;;;;5051624;28;20044;-73
2021/04/05 04:33:05;;;;;;;39.23;20.37;;;6.90;79.10;;;;;;5048928;28;20047;-73
2021/04/05 04:35:31;;;;;;;39.38;22.35;;;7.00;79.10;;;;;;5050915;28;20047;-73
2021/04/05 04:37:58;;;;;;;45.30;23.27;;;7.00;79.20;;;;;;5049478;28;20059;-74
2021/04/05 04:40:28;;;;;;;41.83;22.77;;;7.00;79.40;;;;;;5049559;28;20025;-73
2021/04/05 04:43:02;;;;;;;41.57;22.60;;;7.00;79.40;;;;;;5049735;28;20025;-73
2021/04/05 04:45:29;;;;;;;49.17;25.07;;;7.00;79.40;;;;;;5033016;28;20029;-73
2021/04/05 04:47:56;;;;;;;42.17;24.13;;;7.10;79.50;;;;;;5048411;28;20029;-74
2021/04/05 04:50:24;;;;;;;38.53;22.00;;;7.10;79.50;;;;;;5042051;28;20588;-73
2021/04/05 04:52:50;;;;;;;43.00;23.73;;;7.10;79.60;;;;;;5029120;28;20025;-72
2021/04/05 04:55:16;;;;;;;45.07;25.17;;;7.10;79.60;;;;;;5030475;28;20134;-74
2021/04/05 04:57:43;;;;;;;48.70;25.60;;;7.10;79.70;;;;;;5030505;28;20052;-73
2021/04/05 05:00:09;;;;;;;48.93;24.70;;;7.20;79.70;;;;;;5049865;28;20072;-73
2021/04/05 05:02:40;;;;;;;45.83;24.47;;;7.20;79.70;;;;;;5049002;28;20365;-74
2021/04/05 05:05:07;;;;;;;47.83;26.83;;;7.20;79.70;;;;;;5050633;28;20112;-74
2021/04/05 05:07:35;;;;;;;51.83;26.53;;;7.20;79.70;;;;;;5049493;28;20037;-74
2021/04/05 05:10:01;;;;;;;45.77;25.13;;;7.20;79.80;;;;;;5032217;28;20028;-73
2021/04/05 05:12:27;;;;;;;48.87;25.17;;;7.30;79.90;;;;;;5049011;28;20037;-73
2021/04/05 05:14:53;;;;;;;43.00;23.97;;;7.40;79.90;;;;;;5048585;28;20078;-73
2021/04/05 05:17:19;;;;;;;45.43;24.10;;;7.30;79.80;;;;;;5049802;28;20083;-73
2021/04/05 05:19:47;;;;;;;47.23;25.57;;;7.40;79.80;;;;;;5049035;28;20037;-73
2021/04/05 05:22:17;;;;;;;47.60;25.63;;;7.40;79.80;;;;;;5049965;28;20083;-74
2021/04/05 05:24:44;;;;;;;43.67;25.10;;;7.40;79.80;;;;;;5049953;28;20029;-74
2021/04/05 05:27:11;;;;;;;41.60;24.10;;;7.40;79.80;;;;;;5049897;28;20064;-74
2021/04/05 05:29:41;;;;;;;51.87;25.90;;;7.40;79.80;;;;;;5049297;28;20060;-74
2021/04/05 05:32:08;;;;;;;44.87;25.53;;;7.40;79.70;;;;;;5049510;28;20033;-73
2021/04/05 05:34:34;;;;;;;48.70;25.53;;;7.50;79.80;;;;;;5048940;28;20059;-74
2021/04/05 05:37:00;;;;;;;48.40;26.53;;;7.50;79.80;;;;;;5031968;28;20057;-73
2021/04/05 05:39:26;;;;;;;44.63;24.87;;;7.50;79.80;;;;;;5047744;28;20025;-74
2021/04/05 05:42:04;;;;;;;44.50;24.67;;;7.60;79.90;;;;;;5048309;28;20067;-74
2021/04/05 05:45:00;;;;;;;48.57;25.77;;;7.60;79.80;;;;;;5047795;28;20151;-74
2021/04/05 05:47:31;;;;;;;40.53;24.43;;;7.60;79.80;;;;;;5031137;28;20551;-73
2021/04/05 05:50:34;;;;;;;43.10;24.83;;;7.70;79.80;;;;;;5043546;28;20060;-73
2021/04/05 05:53:28;;;;;;;41.70;24.67;;;7.70;79.80;;;;;;5034044;28;20033;-74
2021/04/05 05:56:30;;;;;;;45.13;25.03;;;7.70;79.80;;;;;;5045345;28;20024;-74
2021/04/05 05:59:10;;;;;;;49.17;26.67;;;7.70;79.80;;;;;;5034187;28;20096;-74
2021/04/05 06:01:51;;;;;;;52.27;28.33;;;7.70;79.80;;;;;;5049181;28;20032;-76
2021/04/05 06:04:47;;;;;;;46.90;28.17;;;7.70;79.80;;;;;;5049138;28;20104;-75
2021/04/05 06:07:22;;;;;;;49.40;27.20;;;7.80;79.90;;;;;;5044743;28;20049;-75
2021/04/05 06:10:15;;;;;;;45.53;26.73;;;7.80;79.90;;;;;;5048865;28;20478;-74
2021/04/05 06:13:00;;;;;;;51.85;27.20;;;7.90;79.70;;;;;;5052130;28;20033;-74
2021/04/05 06:15:28;;;;;;;48.33;28.50;;;7.90;79.80;;;;;;5049211;28;20072;-74
2021/04/05 06:18:15;;;;;;;44.70;27.10;;;7.90;79.70;;;;;;5050875;28;20120;-75
2021/04/05 06:21:02;;;;;;;52.17;26.10;;;8.00;79.70;;;;;;5052876;28;20063;-73
2021/04/05 06:23:49;;;;;;;43.43;25.23;;;8.00;79.60;;;;;;5053204;28;20048;-75
2021/04/05 06:26:40;;;;;;;42.03;25.77;;;8.00;79.70;;;;;;5045248;28;20146;-73
2021/04/05 06:29:39;;;;;;;43.17;25.43;;;8.10;79.60;;;;;;5051441;28;20504;-73
2021/04/05 06:32:25;;;;;;;41.50;25.20;;;8.10;79.60;;;;;;5051944;28;20031;-74
2021/04/05 06:35:03;;;;;;;49.97;26.17;;;8.10;79.50;;;;;;5050497;28;20033;-74
2021/04/05 06:37:56;;;;;;;49.93;25.83;;;8.20;79.40;;;;;;5031564;28;20472;-73
2021/04/05 06:40:23;;;;;;;;;;;8.20;79.30;;;;;;5032164;28;20120;-74
2021/04/05 06:43:00;;;;;;;47.73;25.70;;;8.30;79.50;;;;;;5036686;28;20019;-73
2021/04/05 06:45:54;;;;;;;47.03;26.27;;;8.30;79.40;;;;;;5048490;28;20074;-74
2021/04/05 06:48:58;;;;;;;42.90;25.77;;;8.30;79.60;;;;;;5031564;28;20053;-74
2021/04/05 06:52:02;;;;;;;41.73;25.00;;;8.30;79.60;;;;;;5038531;28;20040;-73
2021/04/05 06:55:05;;;;;;;45.88;24.55;;;8.30;79.70;;;;;;5045592;28;20055;-74
2021/04/05 06:58:07;;;;;;;44.00;24.85;;;8.30;79.50;;;;;;5047574;28;20029;-75
2021/04/05 07:01:10;;;;;;;40.90;24.43;;;8.30;79.50;;;;;;5043627;28;20029;-74
2021/04/05 07:03:54;;;;;;;;;;;8.40;79.80;;;;;;5050827;28;20021;-75
2021/04/05 07:06:42;;;;;;;42.53;24.23;;;8.40;79.70;;;;;;5047739;28;19916;-74
2021/04/05 07:09:08;;;;;;;40.63;24.63;;;8.40;79.60;;;;;;5051011;28;20029;-75
2021/04/05 07:11:55;;;;;;;45.83;25.07;;;8.40;79.80;;;;;;5052842;28;20028;-76
2021/04/05 07:14:27;;;;;;;47.53;27.33;;;8.40;80.40;;;;;;5051973;28;20637;-75
2021/04/05 07:17:16;;;;;;;22.60;12.37;;;8.40;81.00;;;;;;5054322;28;20025;-76
2021/04/05 07:19:47;;;;;;;17.70;9.10;;;8.10;80.20;;;;;;5052089;28;20017;-76
2021/04/05 07:22:36;;;;;;;12.37;6.13;;;7.80;80.00;;;;;;5052261;28;20416;-76
2021/04/05 07:25:06;;;;;;;11.67;4.23;;;7.60;80.30;;;;;;5042944;28;20118;-78
2021/04/05 07:28:07;;;;;;;15.40;8.80;;;7.40;80.30;;;;;;5053816;28;20079;-78
2021/04/05 07:30:40;;;;;;;10.67;4.87;;;7.20;81.40;;;;;;5051904;28;20385;-75
2021/04/05 07:33:38;;;;;;;11.67;5.53;;;7.20;81.20;;;;;;5052600;28;20037;-79
2021/04/05 07:36:35;;;;;;;13.90;7.93;;;7.20;81.40;;;;;;5049905;28;20021;-78
2021/04/05 07:39:09;;;;;;;10.67;6.13;;;7.20;81.60;;;;;;5049486;28;20029;-77
2021/04/05 07:42:11;;;;;;;13.60;7.47;;;7.10;81.40;;;;;;5052077;28;20021;-78
2021/04/05 07:45:24;;;;;;;13.50;6.53;;;7.20;81.60;;;;;;5048933;28;20041;-78
2021/04/05 07:48:11;;;;;;;17.45;10.70;;;7.20;81.60;;;;;;5055690;28;20044;-77
2021/04/05 07:50:44;;;;;;;12.33;6.67;;;7.30;81.80;;;;;;5050472;28;20029;-78
2021/04/05 07:53:22;;;;;;;11.25;6.05;;;7.30;81.60;;;;;;5051479;28;20027;-78
2021/04/05 07:55:49;;;;;;;11.10;6.33;;;7.30;81.40;;;;;;5053548;28;20511;-78
2021/04/05 07:58:31;;;;;;;9.00;4.53;;;7.20;81.30;;;;;;5050791;28;20242;-79
2021/04/05 08:01:14;;;;;;;7.67;3.60;;;7.30;81.60;;;;;;5051183;28;20021;-78
2021/04/05 08:03:52;;;;;;;9.02;3.35;;;7.20;81.10;;;;;;5052515;28;20107;-78
2021/04/05 08:06:22;;;;;;;10.33;6.93;;;7.10;81.00;;;;;;5038349;28;20063;-78
2021/04/05 08:08:57;;;;;;;7.83;3.03;;;7.20;81.30;;;;;;5050520;28;20393;-79
2021/04/05 08:11:31;;;;;;;5.50;2.20;;;7.20;81.10;;;;;;5051215;28;20029;-79
2021/04/05 08:14:11;;;;;;;8.43;2.37;;;7.20;81.10;;;;;;5051229;28;20152;-76
2021/04/05 08:16:49;;;;;;;9.60;3.83;;;7.10;81.00;;;;;;5050285;28;20112;-77
2021/04/05 08:19:41;;;;;;;8.87;3.20;;;7.00;81.50;;;;;;5047587;28;20040;-79
2021/04/05 08:22:27;;;;;;;10.13;2.70;;;7.00;81.40;;;;;;5047229;28;20486;-78
2021/04/05 08:25:13;;;;;;;8.90;3.33;;;7.00;81.60;;;;;;5047977;28;20421;-79
2021/04/05 08:28:12;;;;;;;11.90;4.97;;;7.00;81.90;;;;;;5050578;28;20035;-80
2021/04/05 08:31:01;;;;;;;7.80;3.27;;;7.10;81.90;;;;;;5048153;28;20511;-78
2021/04/05 08:33:39;;;;;;;10.17;4.03;;;7.10;81.70;;;;;;5047343;28;20563;-79
2021/04/05 08:36:30;;;;;;;10.60;5.57;;;7.10;81.80;;;;;;5048426;28;20028;-76
2021/04/05 08:39:01;;;;;;;12.90;5.40;;;6.90;81.60;;;;;;5047332;28;20436;-79
2021/04/05 08:41:35;;;;;;;8.67;2.47;;;6.70;80.70;;;;;;5047559;28;20025;-78
2021/04/05 08:44:19;;;;;;;15.57;4.23;;;6.40;80.50;;;;;;5029431;28;20059;-78
2021/04/05 08:46:48;;;;;;;9.33;2.07;;;6.20;80.50;;;;;;5029689;28;20124;-77
2021/04/05 08:49:20;;;;;;;17.23;5.73;;;6.00;80.20;;;;;;5040254;28;20044;-79
2021/04/05 08:51:50;;;;;;;9.87;4.27;;;5.90;80.10;;;;;;5047790;28;20514;-77
2021/04/05 08:54:26;;;;;;;12.43;2.43;;;6.00;80.20;;;;;;5049642;28;20370;-77
2021/04/05 08:57:04;;;;;;;14.67;5.00;;;6.00;79.60;;;;;;5050001;28;20100;-78
2021/04/05 08:59:44;;;;;;;19.30;6.70;;;6.10;80.00;;;;;;5050420;28;20112;-78
2021/04/05 09:02:18;;;;;;;21.20;8.50;;;6.20;79.60;;;;;;5050535;28;20082;-78
2021/04/05 09:04:44;;;;;;;17.07;6.37;;;6.30;79.90;;;;;;5050483;28;20060;-79
2021/04/05 09:07:41;;;;;;;18.77;4.67;;;6.40;79.00;;;;;;5048595;28;20043;-78
2021/04/05 09:10:08;;;;;;;17.00;3.03;;;6.40;78.80;;;;;;5047720;28;20029;-78
2021/04/05 09:12:36;;;;;;;15.03;4.97;;;6.40;78.60;;;;;;5040157;28;20029;-78
2021/04/05 09:15:14;;;;;;;13.60;2.50;;;6.30;77.60;;;;;;5030711;28;20029;-78
2021/04/05 09:18:16;;;;;;;23.03;4.30;;;6.10;77.20;;;;;;5031904;28;20061;-77
2021/04/05 09:20:45;;;;;;;11.27;2.95;;;5.90;77.90;;;;;;5040063;28;20524;-78
2021/04/05 09:23:44;;;;;;;15.97;4.37;;;5.70;77.60;;;;;;5050794;28;20036;-79
2021/04/05 09:26:37;;;;;;;11.70;2.27;;;5.70;78.30;;;;;;5049144;28;20029;-78
2021/04/05 09:29:24;;;;;;;16.23;4.60;;;5.70;78.00;;;;;;5050362;28;20033;-77
2021/04/05 09:32:00;;;;;;;12.60;3.60;;;5.70;78.50;;;;;;5048041;28;20025;-78
2021/04/05 09:35:00;;;;;;;19.63;3.33;;;5.80;78.00;;;;;;5029629;28;20096;-78
2021/04/05 09:37:44;;;;;;;14.43;3.20;;;5.90;77.80;;;;;;5028251;28;20026;-78
2021/04/05 09:40:51;;;;;;;12.30;1.57;;;5.80;76.80;;;;;;5030346;28;20029;-79
2021/04/05 09:43:52;;;;;;;18.50;5.07;;;5.80;76.20;;;;;;5031538;28;20041;-79
2021/04/05 09:46:53;;;;;;;15.33;3.13;;;6.10;76.80;;;;;;5008876;28;20128;-81
2021/04/05 09:49:34;;;;;;;11.27;2.17;;;6.40;75.90;;;;;;5065685;28;20468;-78
2021/04/05 09:52:37;;;;;;;12.40;1.73;;;6.60;75.00;;;;;;5050229;28;20025;-78
2021/04/05 09:55:07;;;;;;;18.80;5.90;;;6.80;74.30;;;;;;5051100;28;20036;-78
2021/04/05 09:57:59;;;;;;;17.07;3.40;;;6.90;74.70;;;;;;5051356;28;20032;-78
2021/04/05 10:00:26;;;;;;;14.13;2.77;;;7.00;74.90;;;;;;5052236;28;20071;-79
2021/04/05 10:03:02;;;;;;;18.10;2.60;;;7.10;74.20;;;;;;5053428;28;20025;-76
2021/04/05 10:05:32;;;;;;;16.20;3.10;;;7.10;73.40;;;;;;5055989;28;20381;-79
2021/04/05 10:07:58;;;;;;;11.77;4.30;;;7.30;73.20;;;;;;5052517;28;20105;-80
2021/04/05 10:10:29;;;;;;;11.73;3.03;;;7.40;72.40;;;;;;5050369;28;20437;-81
2021/04/05 10:12:57;;;;;;;16.53;2.27;;;7.50;71.80;;;;;;5050222;28;20119;-79
2021/04/05 10:15:27;;;;;;;12.77;4.00;;;7.70;70.90;;;;;;5037152;28;20071;-81
2021/04/05 10:18:00;;;;;;;15.27;3.07;;;7.70;69.70;;;;;;5034016;28;20204;-79
2021/04/05 10:20:27;;;;;;;14.00;4.53;;;7.90;69.30;;;;;;5031522;28;20392;-82
2021/04/05 10:22:55;;;;;;;13.03;4.57;;;8.00;69.60;;;;;;5042591;28;20471;-79
2021/04/05 10:25:26;;;;;;;14.93;4.40;;;8.00;69.00;;;;;;5054244;28;20025;-78
2021/04/05 10:27:54;;;;;;;15.03;5.70;;;7.70;68.50;;;;;;5053725;28;20040;-79
2021/04/05 10:30:31;;;;;;;9.77;1.90;;;7.70;68.70;;;;;;5051836;28;20021;-78
2021/04/05 10:33:06;;;;;;;11.63;3.43;;;7.90;67.70;;;;;;5053383;28;20052;-79
2021/04/05 10:35:36;;;;;;;7.07;1.97;;;8.10;66.60;;;;;;5052517;28;20024;-81
2021/04/05 10:38:04;;;;;;;7.27;1.60;;;8.10;65.00;;;;;;5048474;28;20075;-77
2021/04/05 10:40:30;;;;;;;7.70;2.50;;;7.80;65.60;;;;;;5040722;28;20033;-78
2021/04/05 10:43:22;;;;;;;2.27;0.87;;;7.30;68.20;;;;;;5031949;28;20041;-78
2021/04/05 10:46:05;;;;;;;7.13;2.20;;;6.80;69.00;;;;;;5027001;28;20128;-78
2021/04/05 10:48:46;;;;;;;7.30;2.08;;;6.90;69.00;;;;;;5049475;28;20073;-78
2021/04/05 10:51:33;;;;;;;4.33;0.83;;;7.00;66.90;;;;;;5051940;28;20028;-78
2021/04/05 10:54:21;;;;;;;7.50;1.67;;;7.10;64.10;;;;;;5052537;28;20056;-77
2021/04/05 10:57:19;;;;;;;6.43;1.33;;;7.20;63.30;;;;;;5051225;28;20025;-78
2021/04/05 10:59:53;;;;;;;6.97;2.37;;;7.30;62.80;;;;;;5049826;28;20021;-78
2021/04/05 11:02:22;;;;;;;7.23;1.87;;;7.50;62.60;;;;;;5051259;28;20539;-78
2021/04/05 11:04:53;;;;;;;7.03;1.20;;;7.70;62.20;;;;;;5050153;28;20423;-79
2021/04/05 11:07:21;;;;;;;8.03;3.17;;;7.90;61.50;;;;;;5045254;28;20040;-79
2021/04/05 11:09:49;;;;;;;5.40;0.90;;;8.00;61.00;;;;;;5031929;28;20059;-79
2021/04/05 11:12:18;;;;;;;9.67;3.80;;;8.20;57.20;;;;;;5048113;28;20068;-79
2021/04/05 11:14:45;;;;;;;9.90;1.83;;;8.20;57.80;;;;;;5035844;28;20163;-78
2021/04/05 11:17:13;;;;;;;8.07;2.03;;;8.30;58.10;;;;;;5051454;28;20500;-78
2021/04/05 11:19:49;;;;;;;8.67;1.20;;;8.60;58.20;;;;;;5032634;28;20172;-79
2021/04/05 11:22:18;;;;;;;9.20;1.80;;;8.80;57.40;;;;;;5051737;28;20104;-78
2021/04/05 11:24:45;;;;;;;6.53;1.43;;;8.90;54.20;;;;;;5050779;28;20381;-79
2021/04/05 11:27:14;;;;;;;6.70;1.60;;;9.00;53.10;;;;;;5051619;28;20119;-80
2021/04/05 11:29:46;;;;;;;10.10;2.70;;;9.20;52.50;;;;;;5050220;28;20036;-79
2021/04/05 11:32:15;;;;;;;8.30;1.77;;;9.10;54.00;;;;;;5051892;28;20031;-80
2021/04/05 11:34:44;;;;;;;6.60;1.87;;;9.10;54.50;;;;;;5050708;28;20037;-78
2021/04/05 11:37:15;;;;;;;8.33;1.60;;;9.20;54.50;;;;;;5052323;28;20056;-77
2021/04/05 11:39:46;;;;;;;12.10;2.33;;;9.10;54.00;;;;;;5051260;28;20029;-78
2021/04/05 11:42:13;;;;;;;9.20;1.63;;;8.90;53.40;;;;;;5052318;28;20033;-78
2021/04/05 11:44:54;;;;;;;8.47;1.30;;;8.90;52.00;;;;;;5050650;28;20028;-79
2021/04/05 11:47:22;;;;;;;8.10;1.17;;;8.90;51.00;;;;;;5051684;28;20055;-78
2021/04/05 11:49:48;;;;;;;12.60;2.13;;;9.10;51.20;;;;;;5049396;28;20059;-78
2021/04/05 11:52:40;;;;;;;10.73;2.47;;;9.00;51.10;;;;;;5049377;28;20021;-77
2021/04/05 11:55:07;;;;;;;9.10;2.17;;;8.70;54.50;;;;;;5048938;28;20123;-78
2021/04/05 11:57:58;;;;;;;10.13;1.67;;;8.30;55.10;;;;;;5050496;28;20033;-77
2021/04/05 12:00:28;;;;;;;10.17;1.23;;;7.90;53.10;;;;;;5050227;28;20017;-78
2021/04/05 12:03:21;;;;;;;8.97;1.47;;;7.60;53.90;;;;;;5048685;28;20052;-79
2021/04/05 12:05:57;;;;;;;9.75;1.27;;;7.60;55.20;;;;;;5050452;28;20109;-78
2021/04/05 12:08:28;;;;;;;8.93;1.80;;;7.80;54.10;;;;;;5051967;28;20025;-77
2021/04/05 12:11:04;;;;;;;8.63;1.30;;;7.90;54.50;;;;;;5048958;28;20088;-80
2021/04/05 12:13:39;;;;;;;8.87;1.30;;;7.90;53.00;;;;;;5050621;28;20468;-79
2021/04/05 12:16:06;;;;;;;6.97;1.10;;;8.00;50.50;;;;;;5037629;28;20121;-78
2021/04/05 12:18:33;;;;;;;8.67;1.73;;;8.50;50.00;;;;;;5030484;28;20033;-78
2021/04/05 12:21:03;;;;;;;8.60;1.80;;;8.70;47.40;;;;;;5030594;28;20030;-78
2021/04/05 12:23:29;;;;;;;5.57;0.93;;;8.80;47.30;;;;;;5036540;28;20028;-78
2021/04/05 12:25:55;;;;;;;8.73;2.17;;;8.50;49.20;;;;;;5039073;28;20103;-78
2021/04/05 12:28:30;;;;;;;10.23;2.30;;;8.30;51.50;;;;;;5031068;28;20084;-78
2021/04/05 12:30:56;;;;;;;8.40;2.47;;;8.10;49.60;;;;;;5043509;28;20040;-78
2021/04/05 12:33:25;;;;;;;10.17;3.37;;;8.10;49.90;;;;;;5050804;28;20461;-77
2021/04/05 12:35:57;;;;;;;9.10;1.60;;;8.20;51.00;;;;;;5049324;28;20040;-77
2021/04/05 12:38:38;;;;;;;11.53;2.83;;;8.30;48.90;;;;;;5051204;28;20025;-76
2021/04/05 12:41:06;;;;;;;12.00;3.60;;;8.50;47.80;;;;;;5047936;28;20021;-76
2021/04/05 12:43:35;;;;;;;6.67;1.60;;;8.70;45.80;;;;;;5028916;28;20396;-78
2021/04/05 12:46:03;;;;;;;6.43;1.47;;;8.80;43.50;;;;;;5049123;28;20546;-77
2021/04/05 12:48:32;;;;;;;8.47;1.50;;;8.80;43.00;;;;;;5046383;28;20501;-76
2021/04/05 12:51:10;;;;;;;5.30;1.13;;;9.00;42.60;;;;;;5049957;28;20045;-77
2021/04/05 12:53:38;;;;;;;7.93;0.87;;;9.30;43.00;;;;;;5050244;28;20044;-76
2021/04/05 12:56:06;;;;;;;9.30;2.73;;;9.50;42.00;;;;;;5031489;28;20029;-76
2021/04/05 12:58:34;;;;;;;5.40;1.40;;;10.00;43.50;;;;;;5048628;28;20017;-75
2021/04/05 13:01:01;;;;;;;8.07;2.70;;;10.30;43.80;;;;;;5048805;28;20538;-76
2021/04/05 13:03:48;;;;;;;14.63;5.00;;;10.10;42.10;;;;;;5048423;28;20025;-75
2021/04/05 13:06:21;;;;;;;8.77;1.47;;;9.70;43.70;;;;;;5050463;28;20043;-77
2021/04/05 13:09:15;;;;;;;8.27;3.50;;;9.60;41.90;;;;;;5048853;28;20373;-74
2021/04/05 13:11:48;;;;;;;;;;;10.00;41.80;;;;;;5050159;28;20029;-75
2021/04/05 13:14:26;;;;;;;;;;;10.20;40.60;;;;;;5050367;28;19912;-75
2021/04/05 13:17:23;;;;;;;8.43;1.80;;;10.30;38.60;;;;;;5048120;28;20245;-75
2021/04/05 13:19:57;;;;;;;11.40;1.23;;;10.20;38.80;;;;;;5049106;28;20049;-74
2021/04/05 13:22:29;;;;;;;20.43;4.00;;;10.00;40.00;;;;;;5048578;28;20072;-73
2021/04/05 13:25:09;;;;;;;23.77;1.60;;;9.50;44.30;;;;;;5049539;28;20017;-75